KFAT/FAT METAR and TAF weather

Enter ICAO airport designator
Station Type Date Time Source
KFAT METAR 2019/04/23 03:53 UTC NOAA

KFAT 230353Z 00000KT 10SM SCT150 25/08 A2997 RMK AO2 SLP147 T02500078


Station Type Date Time Source
KFAT Decoded METAR 2019/04/23 03:53 UTC NOAA

FRESNO AIR TERMINAL, CA, United States (KFAT) 36-47N 119-43W 104M
Apr 22, 2019 - 11:53 PM EDT / 2019.04.23 0353 UTC
Wind: Calm:0
Visibility: 10 mile(s):0
Sky conditions: partly cloudy
Temperature: 77.0 F (25.0 C)
Dew Point: 46.0 F (7.8 C)
Relative Humidity: 33%
Pressure (altimeter): 29.97 in. Hg (1014 hPa)
ob: KFAT 230353Z 00000KT 10SM SCT150 25/08 A2997 RMK AO2 SLP147 T02500078
cycle: 4

Station Type Date Time Source
KFAT TAF 2019/04/22 18:27 UTC NOAA

TAF KFAT 221725Z 2218/2318 30007KT P6SM SKC

Example: see airport list